Time,TemperatureF,DewpointF,PressureIn,WindDirection,WindDirectionDegrees,WindSpeedMPH,WindSpeedGustMPH,Humidity,HourlyPrecipIn,Conditions,Clouds,dailyrainin,SoftwareType,DateUTC
2013-08-05 00:00:00,70.9,48.4,25.16,SW,231,5.0,5.8,45,0.00,,,-99.99,FreeWX 2.04,2013-08-05 06:00:00,
2013-08-05 00:05:00,70.9,48.4,25.16,WSW,241,3.0,5.4,45,0.00,,,-99.99,FreeWX 2.04,2013-08-05 06:05:00,
2013-08-05 00:10:00,70.5,49.3,25.16,WSW,248,2.0,4.9,47,0.00,,,-99.99,FreeWX 2.04,2013-08-05 06:10:00,
2013-08-05 00:15:00,70.3,49.1,25.16,WSW,248,1.0,3.1,47,0.00,,,-99.99,FreeWX 2.04,2013-08-05 06:15:00,
2013-08-05 00:20:00,70.5,49.3,25.16,WSW,250,1.0,4.5,47,0.00,,,-99.99,FreeWX 2.04,2013-08-05 06:20:00,
2013-08-05 00:25:00,70.5,49.3,25.16,North,-999,0.0,2.7,47,0.00,,,-99.99,FreeWX 2.04,2013-08-05 06:25:00,
2013-08-05 00:30:00,70.3,49.1,25.16,North,-999,0.0,4.0,47,0.00,,,-99.99,FreeWX 2.04,2013-08-05 06:30:00,
2013-08-05 00:35:00,70.3,49.6,25.16,North,-999,0.0,0.0,48,0.00,,,-99.99,FreeWX 2.04,2013-08-05 06:35:00,
2013-08-05 00:40:00,70.2,49.5,25.16,North,-999,0.0,0.0,48,0.00,,,-99.99,FreeWX 2.04,2013-08-05 06:40:00,
2013-08-05 00:45:00,70.0,50.0,25.16,North,-999,0.0,4.5,49,0.00,,,-99.99,FreeWX 2.04,2013-08-05 06:45:00,
2013-08-05 00:50:00,69.8,50.9,25.16,West,277,2.0,5.8,51,0.00,,,-99.99,FreeWX 2.04,2013-08-05 06:50:00,
2013-08-05 00:55:00,69.8,50.4,25.16,North,351,3.0,5.4,50,0.00,,,-99.99,FreeWX 2.04,2013-08-05 06:55:00,
2013-08-05 01:00:00,69.8,50.4,25.16,NNE,19,2.0,4.0,50,0.00,,,-99.99,FreeWX 2.04,2013-08-05 07:00:00,
2013-08-05 01:05:00,70.3,49.6,25.16,North,3,4.0,6.3,48,0.00,,,-99.99,FreeWX 2.04,2013-08-05 07:05:00,
2013-08-05 01:10:00,70.3,49.6,25.16,NNW,345,4.0,6.3,48,0.00,,,-99.99,FreeWX 2.04,2013-08-05 07:10:00,
2013-08-05 01:15:00,70.3,49.6,25.16,North,352,4.0,5.8,48,0.00,,,-99.99,FreeWX 2.04,2013-08-05 07:15:00,
2013-08-05 01:20:00,70.3,49.6,25.16,North,2,3.0,4.5,48,0.00,,,-99.99,FreeWX 2.04,2013-08-05 07:20:00,
2013-08-05 01:25:00,70.3,49.6,25.16,North,6,3.0,4.5,48,0.00,,,-99.99,FreeWX 2.04,2013-08-05 07:25:00,
2013-08-05 01:30:00,70.0,50.5,25.16,NNE,24,3.0,4.9,50,0.00,,,-99.99,FreeWX 2.04,2013-08-05 07:30:00,
2013-08-05 01:35:00,69.8,50.4,25.16,NE,43,3.0,4.9,50,0.00,,,-99.99,FreeWX 2.04,2013-08-05 07:35:00,
2013-08-05 01:40:00,69.8,50.4,25.16,NNE,28,4.0,6.7,50,0.00,,,-99.99,FreeWX 2.04,2013-08-05 07:40:00,
2013-08-05 01:45:00,70.0,51.1,25.16,North,1,5.0,8.3,51,0.00,,,-99.99,FreeWX 2.04,2013-08-05 07:45:00,
2013-08-05 01:50:00,70.2,50.7,25.16,NNW,346,6.0,9.2,50,0.00,,,-99.99,FreeWX 2.04,2013-08-05 07:50:00,
2013-08-05 01:55:00,70.2,50.7,25.16,NNW,346,6.0,7.8,50,0.00,,,-99.99,FreeWX 2.04,2013-08-05 07:55:00,
2013-08-05 02:01:00,70.3,50.2,25.16,North,354,5.0,6.7,49,0.00,,,-99.99,FreeWX 2.04,2013-08-05 08:01:00,
2013-08-05 02:06:00,70.2,50.2,25.16,North,359,4.0,6.7,49,0.00,,,-99.99,FreeWX 2.04,2013-08-05 08:06:00,
2013-08-05 02:11:00,70.5,50.4,25.16,North,354,4.0,5.4,49,0.00,,,-99.99,FreeWX 2.04,2013-08-05 08:11:00,
2013-08-05 02:15:00,70.3,50.2,25.16,North,351,2.0,4.0,49,0.00,,,-99.99,FreeWX 2.04,2013-08-05 08:15:00,
2013-08-05 02:21:00,70.7,49.5,25.16,NNW,341,2.0,6.9,47,0.00,,,-99.99,FreeWX 2.04,2013-08-05 08:21:00,
2013-08-05 02:26:00,71.1,49.3,25.16,NNW,341,4.0,8.7,46,0.00,,,-99.99,FreeWX 2.04,2013-08-05 08:26:00,
2013-08-05 02:31:00,71.1,49.8,25.16,NNW,341,6.0,9.6,47,0.00,,,-99.99,FreeWX 2.04,2013-08-05 08:31:00,
2013-08-05 02:36:00,71.1,49.8,25.16,NNW,342,6.0,10.1,47,0.00,,,-99.99,FreeWX 2.04,2013-08-05 08:36:00,
2013-08-05 02:40:00,70.9,50.2,25.16,NNW,340,6.0,10.1,48,0.00,,,-99.99,FreeWX 2.04,2013-08-05 08:40:00,
2013-08-05 02:51:00,70.5,49.8,25.16,NNW,330,5.0,11.0,48,0.00,,,-99.99,FreeWX 2.04,2013-08-05 08:51:00,
2013-08-05 02:56:00,70.2,49.5,25.16,NW,318,5.0,10.5,48,0.00,,,-99.99,FreeWX 2.04,2013-08-05 08:56:00,
2013-08-05 03:01:00,70.0,48.7,25.16,NNW,329,5.0,8.3,47,0.00,,,-99.99,FreeWX 2.04,2013-08-05 09:01:00,
2013-08-05 03:12:00,70.2,47.8,25.16,NNW,340,4.0,8.3,45,0.00,,,-99.99,FreeWX 2.04,2013-08-05 09:12:00,
2013-08-05 03:17:00,70.2,47.8,25.16,North,354,4.0,6.7,45,0.00,,,-99.99,FreeWX 2.04,2013-08-05 09:17:00,
2013-08-05 03:22:00,69.8,48.0,25.16,North,357,4.0,10.1,46,0.00,,,-99.99,FreeWX 2.04,2013-08-05 09:22:00,
2013-08-05 03:28:00,69.6,47.8,25.16,North,356,4.0,6.7,46,0.00,,,-99.99,FreeWX 2.04,2013-08-05 09:28:00,
2013-08-05 03:33:00,69.3,48.2,25.16,North,1,4.0,7.4,47,0.00,,,-99.99,FreeWX 2.04,2013-08-05 09:33:00,
2013-08-05 03:38:00,68.9,48.9,25.16,NNW,348,5.0,7.4,49,0.00,,,-99.99,FreeWX 2.04,2013-08-05 09:38:00,
2013-08-05 03:43:00,68.7,49.3,25.16,NNW,336,5.0,8.3,50,0.00,,,-99.99,FreeWX 2.04,2013-08-05 09:43:00,
2013-08-05 03:48:00,68.7,49.3,25.16,NNW,341,6.0,9.2,50,0.00,,,-99.99,FreeWX 2.04,2013-08-05 09:48:00,
2013-08-05 03:52:00,68.4,49.5,25.16,NNW,347,7.0,10.1,51,0.00,,,-99.99,FreeWX 2.04,2013-08-05 09:52:00,
2013-08-05 03:58:00,68.5,49.6,25.16,North,351,7.0,10.5,51,0.00,,,-99.99,FreeWX 2.04,2013-08-05 09:58:00,
2013-08-05 04:03:00,68.0,49.6,25.16,North,10,6.0,7.8,52,0.00,,,-99.99,FreeWX 2.04,2013-08-05 10:03:00,
2013-08-05 04:08:00,67.6,50.4,25.16,NE,44,5.0,7.8,54,0.00,,,-99.99,FreeWX 2.04,2013-08-05 10:08:00,
2013-08-05 04:12:00,67.5,50.7,25.16,ENE,74,6.0,8.7,55,0.00,,,-99.99,FreeWX 2.04,2013-08-05 10:12:00,
2013-08-05 04:18:00,67.8,51.1,25.16,East,83,5.0,7.4,55,0.00,,,-99.99,FreeWX 2.04,2013-08-05 10:18:00,
2013-08-05 04:22:00,68.4,51.1,25.16,East,87,5.0,7.8,54,0.00,,,-99.99,FreeWX 2.04,2013-08-05 10:22:00,
2013-08-05 04:28:00,68.5,50.7,25.16,East,80,4.0,6.3,53,0.00,,,-99.99,FreeWX 2.04,2013-08-05 10:28:00,
2013-08-05 04:33:00,68.5,50.7,25.16,ENE,70,2.0,4.9,53,0.00,,,-99.99,FreeWX 2.04,2013-08-05 10:33:00,
2013-08-05 04:38:00,69.1,50.7,25.16,ENE,59,2.0,5.8,52,0.00,,,-99.99,FreeWX 2.04,2013-08-05 10:38:00,
2013-08-05 04:48:00,70.3,49.1,25.16,NNW,348,4.0,9.6,47,0.00,,,-99.99,FreeWX 2.04,2013-08-05 10:48:00,
2013-08-05 04:53:00,70.7,47.7,25.16,North,351,6.0,11.0,44,0.00,,,-99.99,FreeWX 2.04,2013-08-05 10:53:00,
2013-08-05 04:58:00,70.3,48.0,25.16,North,355,6.0,7.8,45,0.00,,,-99.99,FreeWX 2.04,2013-08-05 10:58:00,
2013-08-05 05:03:00,70.2,48.4,25.16,North,1,5.0,6.3,46,0.00,,,-99.99,FreeWX 2.04,2013-08-05 11:03:00,
2013-08-05 05:08:00,69.6,48.6,25.16,NNE,22,3.0,4.9,47,0.00,,,-99.99,FreeWX 2.04,2013-08-05 11:08:00,
2013-08-05 05:13:00,69.1,48.6,25.16,NE,37,2.0,4.5,48,0.00,,,-99.99,FreeWX 2.04,2013-08-05 11:13:00,
2013-08-05 05:18:00,69.1,49.1,25.16,NNE,33,3.0,4.9,49,0.00,,,-99.99,FreeWX 2.04,2013-08-05 11:18:00,
2013-08-05 05:23:00,68.9,49.5,25.16,North,356,3.0,4.5,50,0.00,,,-99.99,FreeWX 2.04,2013-08-05 11:23:00,
2013-08-05 05:28:00,68.4,49.5,25.16,NNW,329,3.0,5.4,51,0.00,,,-99.99,FreeWX 2.04,2013-08-05 11:28:00,
2013-08-05 05:39:00,68.4,50.5,25.16,NNW,329,4.0,6.7,53,0.00,,,-99.99,FreeWX 2.04,2013-08-05 11:39:00,
2013-08-05 05:44:00,68.2,50.4,25.16,NW,325,4.0,6.3,53,0.00,,,-99.99,FreeWX 2.04,2013-08-05 11:44:00,
2013-08-05 05:49:00,68.2,50.9,25.16,NNW,331,4.0,6.7,54,0.00,,,-99.99,FreeWX 2.04,2013-08-05 11:49:00,
2013-08-05 05:59:00,67.8,51.6,25.16,NNW,336,4.0,5.8,56,0.00,,,-99.99,FreeWX 2.04,2013-08-05 11:59:00,
2013-08-05 06:09:00,67.6,51.8,25.16,North,352,3.0,7.4,57,0.00,,,-99.99,FreeWX 2.04,2013-08-05 12:09:00,
2013-08-05 06:14:00,67.6,52.3,25.16,NNE,15,3.0,4.9,58,0.00,,,-99.99,FreeWX 2.04,2013-08-05 12:14:00,
2013-08-05 06:19:00,67.5,52.2,25.16,North,9,4.0,6.9,58,0.00,,,-99.99,FreeWX 2.04,2013-08-05 12:19:00,
2013-08-05 06:30:00,67.5,52.2,25.16,North,352,3.0,4.9,58,0.00,,,-99.99,FreeWX 2.04,2013-08-05 12:30:00,
2013-08-05 06:35:00,67.8,52.0,25.16,North,352,4.0,7.4,57,0.00,,,-99.99,FreeWX 2.04,2013-08-05 12:35:00,
2013-08-05 06:40:00,67.8,51.6,25.16,North,0,5.0,7.8,56,0.00,,,-99.99,FreeWX 2.04,2013-08-05 12:40:00,
2013-08-05 06:45:00,67.6,51.8,25.16,NNE,20,3.0,8.3,57,0.00,,,-99.99,FreeWX 2.04,2013-08-05 12:45:00,
2013-08-05 06:49:00,67.5,51.6,25.19,NNE,27,1.0,6.3,57,0.00,,,-99.99,FreeWX 2.04,2013-08-05 12:49:00,
2013-08-05 06:55:00,67.3,52.0,25.19,NNE,18,1.0,5.8,58,0.00,,,-99.99,FreeWX 2.04,2013-08-05 12:55:00,
2013-08-05 07:00:00,68.0,53.1,25.19,North,3,3.0,8.7,59,0.00,,,-99.99,FreeWX 2.04,2013-08-05 13:00:00,
2013-08-05 07:10:00,68.0,52.7,25.19,North,349,7.0,10.5,58,0.00,,,-99.99,FreeWX 2.04,2013-08-05 13:10:00,
2013-08-05 07:15:00,67.8,52.9,25.19,North,351,7.0,9.6,59,0.00,,,-99.99,FreeWX 2.04,2013-08-05 13:15:00,
2013-08-05 07:20:00,67.5,52.7,25.19,North,358,7.0,10.5,59,0.00,,,-99.99,FreeWX 2.04,2013-08-05 13:20:00,
2013-08-05 07:25:00,67.5,52.7,25.19,North,2,7.0,9.6,59,0.00,,,-99.99,FreeWX 2.04,2013-08-05 13:25:00,
2013-08-05 07:30:00,67.6,52.3,25.19,North,1,7.0,9.6,58,0.00,,,-99.99,FreeWX 2.04,2013-08-05 13:30:00,
2013-08-05 07:35:00,67.8,52.5,25.19,North,359,7.0,9.6,58,0.00,,,-99.99,FreeWX 2.04,2013-08-05 13:35:00,
2013-08-05 08:01:00,70.2,52.2,25.19,North,0,4.0,5.8,53,0.00,,,-99.99,FreeWX 2.04,2013-08-05 14:01:00,
2013-08-05 08:06:00,70.0,51.6,25.19,North,353,4.0,5.8,52,0.00,,,-99.99,FreeWX 2.04,2013-08-05 14:06:00,
2013-08-05 08:12:00,69.6,51.3,25.19,NNW,341,4.0,5.8,52,0.00,,,-99.99,FreeWX 2.04,2013-08-05 14:12:00,
2013-08-05 08:16:00,68.9,51.6,25.19,NW,326,4.0,6.9,54,0.00,,,-99.99,FreeWX 2.04,2013-08-05 14:16:00,
2013-08-05 08:38:00,69.1,51.8,25.19,NNW,331,5.0,9.6,54,0.00,,,-99.99,FreeWX 2.04,2013-08-05 14:38:00,
2013-08-05 08:48:00,69.6,51.3,25.19,NNW,342,5.0,6.9,52,0.00,,,-99.99,FreeWX 2.04,2013-08-05 14:48:00,
2013-08-05 08:53:00,70.0,51.6,25.19,NNW,334,5.0,6.7,52,0.00,,,-99.99,FreeWX 2.04,2013-08-05 14:53:00,
2013-08-05 08:58:00,70.3,51.3,25.19,NNW,343,4.0,7.4,51,0.00,,,-99.99,FreeWX 2.04,2013-08-05 14:58:00,
2013-08-05 09:03:00,70.5,50.9,25.19,NNW,331,4.0,6.9,50,0.00,,,-99.99,FreeWX 2.04,2013-08-05 15:03:00,
2013-08-05 09:08:00,70.9,50.2,25.19,NW,325,4.0,7.8,48,0.00,,,-99.99,FreeWX 2.04,2013-08-05 15:08:00,
2013-08-05 09:18:00,71.2,50.0,25.19,NNW,340,6.0,11.0,47,0.00,,,-99.99,FreeWX 2.04,2013-08-05 15:18:00,
2013-08-05 09:23:00,71.6,49.6,25.19,North,352,7.0,9.6,46,0.00,,,-99.99,FreeWX 2.04,2013-08-05 15:23:00,
2013-08-05 09:34:00,72.9,48.4,25.19,North,355,6.0,8.7,42,0.00,,,-99.99,FreeWX 2.04,2013-08-05 15:34:00,
2013-08-05 09:39:00,72.5,47.5,25.19,NNW,348,6.0,8.7,41,0.00,,,-99.99,FreeWX 2.04,2013-08-05 15:39:00,
2013-08-05 09:43:00,72.9,47.8,25.19,NNW,342,6.0,9.2,41,0.00,,,-99.99,FreeWX 2.04,2013-08-05 15:43:00,
2013-08-05 09:49:00,72.9,47.8,25.19,NNW,344,6.0,8.7,41,0.00,,,-99.99,FreeWX 2.04,2013-08-05 15:49:00,
2013-08-05 09:53:00,73.4,48.2,25.19,NNW,339,6.0,8.3,41,0.00,,,-99.99,FreeWX 2.04,2013-08-05 15:53:00,
2013-08-05 10:04:00,75.2,47.8,25.19,NNW,345,5.0,7.4,38,0.00,,,-99.99,FreeWX 2.04,2013-08-05 16:04:00,
2013-08-05 10:15:00,75.0,46.2,25.19,WNW,303,5.0,8.3,36,0.00,,,-99.99,FreeWX 2.04,2013-08-05 16:15:00,
2013-08-05 10:20:00,75.2,46.4,25.19,NW,308,4.0,7.4,36,0.00,,,-99.99,FreeWX 2.04,2013-08-05 16:20:00,
2013-08-05 10:25:00,75.7,46.9,25.19,NNW,328,4.0,7.4,36,0.00,,,-99.99,FreeWX 2.04,2013-08-05 16:25:00,
2013-08-05 10:30:00,75.2,46.4,25.19,NNW,339,4.0,8.7,36,0.00,,,-99.99,FreeWX 2.04,2013-08-05 16:30:00,
2013-08-05 10:34:00,75.2,46.4,25.19,NNW,333,5.0,7.4,36,0.00,,,-99.99,FreeWX 2.04,2013-08-05 16:34:00,
2013-08-05 10:40:00,75.9,46.9,25.19,NW,324,4.0,6.7,36,0.00,,,-99.99,FreeWX 2.04,2013-08-05 16:40:00,
2013-08-05 10:45:00,76.6,46.9,25.19,NW,308,3.0,6.3,35,0.00,,,-99.99,FreeWX 2.04,2013-08-05 16:45:00,
2013-08-05 10:50:00,76.6,46.2,25.19,WNW,283,4.0,8.7,34,0.00,,,-99.99,FreeWX 2.04,2013-08-05 16:50:00,
2013-08-05 10:55:00,77.0,47.3,25.19,West,264,4.0,7.4,35,0.00,,,-99.99,FreeWX 2.04,2013-08-05 16:55:00,
2013-08-05 11:00:00,77.0,47.3,25.19,SW,223,6.0,9.6,35,0.00,,,-99.99,FreeWX 2.04,2013-08-05 17:00:00,
2013-08-05 11:04:00,77.0,48.0,25.19,SSE,167,7.0,9.6,36,0.00,,,-99.99,FreeWX 2.04,2013-08-05 17:04:00,
2013-08-05 11:15:00,77.2,45.9,25.19,SE,145,5.0,6.9,33,0.00,,,-99.99,FreeWX 2.04,2013-08-05 17:15:00,
2013-08-05 11:20:00,76.8,46.2,25.19,SE,144,4.0,6.3,34,0.00,,,-99.99,FreeWX 2.04,2013-08-05 17:20:00,
2013-08-05 11:25:00,77.2,46.6,25.19,SE,145,4.0,4.9,34,0.00,,,-99.99,FreeWX 2.04,2013-08-05 17:25:00,
2013-08-05 11:30:00,77.7,47.1,25.19,SE,144,3.0,6.3,34,0.00,,,-99.99,FreeWX 2.04,2013-08-05 17:30:00,
2013-08-05 11:35:00,78.3,46.0,25.19,SE,142,3.0,4.5,32,0.00,,,-99.99,FreeWX 2.04,2013-08-05 17:35:00,
2013-08-05 11:40:00,78.4,46.0,25.19,SE,142,3.0,6.3,32,0.00,,,-99.99,FreeWX 2.04,2013-08-05 17:40:00,
2013-08-05 11:45:00,78.6,45.5,25.19,SE,142,4.0,6.3,31,0.00,,,-99.99,FreeWX 2.04,2013-08-05 17:45:00,
2013-08-05 11:50:00,79.2,45.9,25.19,East,91,4.0,6.7,31,0.00,,,-99.99,FreeWX 2.04,2013-08-05 17:50:00,
2013-08-05 12:00:00,79.3,46.0,25.19,NNW,328,3.0,5.4,31,0.00,,,-99.99,FreeWX 2.04,2013-08-05 18:00:00,
2013-08-05 12:11:00,82.0,42.8,25.19,North,352,2.0,6.3,25,0.00,,,-99.99,FreeWX 2.04,2013-08-05 18:11:00,
2013-08-05 12:16:00,82.6,41.0,25.16,NE,53,3.0,5.4,23,0.00,,,-99.99,FreeWX 2.04,2013-08-05 18:16:00,
2013-08-05 12:21:00,81.9,39.2,25.16,ENE,62,4.0,10.1,22,0.00,,,-99.99,FreeWX 2.04,2013-08-05 18:21:00,
2013-08-05 12:26:00,82.6,39.9,25.16,WSW,244,6.0,9.6,22,0.00,,,-99.99,FreeWX 2.04,2013-08-05 18:26:00,
2013-08-05 12:31:00,83.3,40.5,25.16,WSW,240,4.0,7.4,22,0.00,,,-99.99,FreeWX 2.04,2013-08-05 18:31:00,
2013-08-05 12:41:00,82.8,38.8,25.16,NNW,335,4.0,7.8,21,0.00,,,-99.99,FreeWX 2.04,2013-08-05 18:41:00,
2013-08-05 12:46:00,82.2,38.3,25.16,North,350,4.0,8.7,21,0.00,,,-99.99,FreeWX 2.04,2013-08-05 18:46:00,
2013-08-05 12:57:00,83.8,38.5,25.16,WNW,299,4.0,9.6,20,0.00,,,-99.99,FreeWX 2.04,2013-08-05 18:57:00,
2013-08-05 13:02:00,84.0,37.2,25.16,WSW,246,5.0,9.6,19,0.00,,,-99.99,FreeWX 2.04,2013-08-05 19:02:00,
2013-08-05 13:07:00,83.7,37.0,25.16,WSW,240,7.0,13.0,19,0.00,,,-99.99,FreeWX 2.04,2013-08-05 19:07:00,
2013-08-05 13:12:00,84.0,37.2,25.16,WSW,242,8.0,13.9,19,0.00,,,-99.99,FreeWX 2.04,2013-08-05 19:12:00,
2013-08-05 13:27:00,84.6,37.8,25.13,West,264,5.0,7.4,19,0.00,,,-99.99,FreeWX 2.04,2013-08-05 19:27:00,
2013-08-05 13:32:00,84.4,38.8,25.13,WSW,249,4.0,9.6,20,0.00,,,-99.99,FreeWX 2.04,2013-08-05 19:32:00,
2013-08-05 13:37:00,83.7,38.3,25.13,WSW,251,5.0,8.7,20,0.00,,,-99.99,FreeWX 2.04,2013-08-05 19:37:00,
2013-08-05 13:42:00,83.7,38.3,25.13,SSW,209,5.0,8.3,20,0.00,,,-99.99,FreeWX 2.04,2013-08-05 19:42:00,
2013-08-05 13:47:00,84.4,38.8,25.13,SSE,166,6.0,9.6,20,0.00,,,-99.99,FreeWX 2.04,2013-08-05 19:47:00,
2013-08-05 13:52:00,85.1,39.6,25.13,South,182,6.0,12.1,20,0.00,,,-99.99,FreeWX 2.04,2013-08-05 19:52:00,
2013-08-05 13:57:00,84.6,37.8,25.13,SSW,208,6.0,12.5,19,0.00,,,-99.99,FreeWX 2.04,2013-08-05 19:57:00,
2013-08-05 14:02:00,85.6,38.7,25.13,WSW,251,5.0,6.9,19,0.00,,,-99.99,FreeWX 2.04,2013-08-05 20:02:00,
2013-08-05 14:08:00,84.4,37.6,25.13,WSW,252,5.0,9.6,19,0.00,,,-99.99,FreeWX 2.04,2013-08-05 20:08:00,
2013-08-05 14:13:00,84.6,39.0,25.13,SSW,212,6.0,9.2,20,0.00,,,-99.99,FreeWX 2.04,2013-08-05 20:13:00,
2013-08-05 14:23:00,85.6,38.7,25.13,SSE,166,4.0,6.3,19,0.00,,,-99.99,FreeWX 2.04,2013-08-05 20:23:00,
2013-08-05 14:28:00,85.8,38.8,25.13,SSE,152,3.0,5.8,19,0.00,,,-99.99,FreeWX 2.04,2013-08-05 20:28:00,
2013-08-05 14:33:00,86.7,38.1,25.13,SSE,147,2.0,5.4,18,0.00,,,-99.99,FreeWX 2.04,2013-08-05 20:33:00,
2013-08-05 14:38:00,86.0,37.6,25.13,ESE,110,3.0,7.8,18,0.00,,,-99.99,FreeWX 2.04,2013-08-05 20:38:00,
2013-08-05 14:48:00,86.5,37.9,25.10,NW,324,2.0,6.7,18,0.00,,,-99.99,FreeWX 2.04,2013-08-05 20:48:00,
2013-08-05 14:53:00,86.0,37.6,25.10,West,263,4.0,8.3,18,0.00,,,-99.99,FreeWX 2.04,2013-08-05 20:53:00,
2013-08-05 14:58:00,85.6,38.7,25.10,SSW,203,7.0,11.0,19,0.00,,,-99.99,FreeWX 2.04,2013-08-05 20:58:00,
2013-08-05 15:03:00,86.5,39.4,25.10,South,189,7.0,11.0,19,0.00,,,-99.99,FreeWX 2.04,2013-08-05 21:03:00,
2013-08-05 15:08:00,86.4,37.8,25.10,South,182,8.0,11.6,18,0.00,,,-99.99,FreeWX 2.04,2013-08-05 21:08:00,
2013-08-05 15:13:00,86.5,37.9,25.10,South,184,7.0,7.0,18,0.00,,,-99.99,FreeWX 2.04,2013-08-05 21:13:00,
2013-08-05 15:18:00,86.4,37.8,25.10,South,173,5.0,6.3,18,0.00,,,-99.99,FreeWX 2.04,2013-08-05 21:18:00,
2013-08-05 15:23:00,86.0,37.6,25.10,SSE,167,4.0,6.3,18,0.00,,,-99.99,FreeWX 2.04,2013-08-05 21:23:00,
2013-08-05 15:28:00,86.2,37.8,25.10,South,182,4.0,7.8,18,0.00,,,-99.99,FreeWX 2.04,2013-08-05 21:28:00,
2013-08-05 15:33:00,86.0,38.8,25.10,South,179,5.0,9.6,19,0.00,,,-99.99,FreeWX 2.04,2013-08-05 21:33:00,
2013-08-05 15:38:00,86.5,37.9,25.10,SSE,158,4.0,6.7,18,0.00,,,-99.99,FreeWX 2.04,2013-08-05 21:38:00,
2013-08-05 15:43:00,87.1,33.8,25.10,SE,132,2.0,6.3,15,0.00,,,-99.99,FreeWX 2.04,2013-08-05 21:43:00,
2013-08-05 15:48:00,87.1,30.2,25.10,NW,308,3.0,6.9,13,0.00,,,-99.99,FreeWX 2.04,2013-08-05 21:48:00,
2013-08-05 15:53:00,86.9,30.2,25.10,West,275,4.0,9.2,13,0.00,,,-99.99,FreeWX 2.04,2013-08-05 21:53:00,
2013-08-05 15:58:00,87.1,30.2,25.10,WNW,295,4.0,10.5,13,0.00,,,-99.99,FreeWX 2.04,2013-08-05 21:58:00,
2013-08-05 16:03:00,87.1,30.2,25.10,North,7,6.0,9.2,13,0.00,,,-99.99,FreeWX 2.04,2013-08-05 22:03:00,
2013-08-05 16:14:00,86.9,-99.9,25.10,North,8,3.0,5.4,-999,0.00,,,-99.99,FreeWX 2.04,2013-08-05 22:14:00,
2013-08-05 16:29:00,86.2,25.5,25.07,NNW,340,6.0,9.2,11,0.00,,,-99.99,FreeWX 2.04,2013-08-05 22:29:00,
2013-08-05 16:34:00,86.5,29.8,25.07,NW,322,4.0,6.9,13,0.00,,,-99.99,FreeWX 2.04,2013-08-05 22:34:00,
2013-08-05 16:50:00,86.7,25.9,25.07,NW,323,6.0,9.6,11,0.00,,,-99.99,FreeWX 2.04,2013-08-05 22:50:00,
2013-08-05 16:55:00,86.2,25.5,25.07,NW,323,6.0,8.3,11,0.00,,,-99.99,FreeWX 2.04,2013-08-05 22:55:00,
2013-08-05 17:00:00,86.7,25.9,25.07,NNW,331,5.0,5.4,11,0.00,,,-99.99,FreeWX 2.04,2013-08-05 23:00:00,
2013-08-05 17:05:00,86.5,25.7,25.07,NNW,343,4.0,10.1,11,0.00,,,-99.99,FreeWX 2.04,2013-08-05 23:05:00,
2013-08-05 17:15:00,86.5,25.7,25.07,NW,311,6.0,10.5,11,0.00,,,-99.99,FreeWX 2.04,2013-08-05 23:15:00,
2013-08-05 17:20:00,86.2,25.5,25.07,NNW,333,6.0,8.3,11,0.00,,,-99.99,FreeWX 2.04,2013-08-05 23:20:00,
2013-08-05 17:25:00,86.2,25.5,25.07,NNW,332,5.0,8.7,11,0.00,,,-99.99,FreeWX 2.04,2013-08-05 23:25:00,
2013-08-05 17:30:00,86.4,25.7,25.07,NW,310,5.0,9.2,11,0.00,,,-99.99,FreeWX 2.04,2013-08-05 23:30:00,
2013-08-05 17:35:00,86.7,25.9,25.07,WNW,300,5.0,6.9,11,0.00,,,-99.99,FreeWX 2.04,2013-08-05 23:35:00,
2013-08-05 17:46:00,87.1,-99.9,25.07,NW,316,5.0,9.6,-999,0.00,,,-99.99,FreeWX 2.04,2013-08-05 23:46:00,
2013-08-05 17:51:00,86.7,25.9,25.07,North,349,5.0,8.7,11,0.00,,,-99.99,FreeWX 2.04,2013-08-05 23:51:00,
2013-08-05 17:56:00,86.5,25.7,25.07,North,2,4.0,6.9,11,0.00,,,-99.99,FreeWX 2.04,2013-08-05 23:56:00,
2013-08-05 18:01:00,86.4,-99.9,25.07,North,2,4.0,8.3,-999,0.00,,,-99.99,FreeWX 2.04,2013-08-06 00:01:00,
2013-08-05 18:17:00,86.2,-99.9,25.07,North,350,2.0,5.8,-999,0.00,,,-99.99,FreeWX 2.04,2013-08-06 00:17:00,
2013-08-05 18:22:00,86.2,-99.9,25.07,NNW,348,1.0,4.9,-999,0.00,,,-99.99,FreeWX 2.04,2013-08-06 00:22:00,
2013-08-05 18:27:00,86.0,-99.9,25.07,NNW,336,2.0,6.9,-999,0.00,,,-99.99,FreeWX 2.04,2013-08-06 00:27:00,
2013-08-05 18:32:00,86.0,-99.9,25.07,NW,322,3.0,4.9,-999,0.00,,,-99.99,FreeWX 2.04,2013-08-06 00:32:00,
2013-08-05 18:37:00,85.5,-99.9,25.07,NW,326,4.0,7.4,-999,0.00,,,-99.99,FreeWX 2.04,2013-08-06 00:37:00,
2013-08-05 18:42:00,85.1,-99.9,25.07,NNW,333,5.0,8.7,-999,0.00,,,-99.99,FreeWX 2.04,2013-08-06 00:42:00,
2013-08-05 18:47:00,84.9,-99.9,25.07,North,349,6.0,8.3,-999,0.00,,,-99.99,FreeWX 2.04,2013-08-06 00:47:00,
2013-08-05 18:52:00,83.8,-99.9,25.07,NE,52,7.0,18.1,-999,0.00,,,-99.99,FreeWX 2.04,2013-08-06 00:52:00,
2013-08-05 18:57:00,83.7,23.5,25.07,SE,133,8.0,15.4,11,0.00,,,-99.99,FreeWX 2.04,2013-08-06 00:57:00,
2013-08-05 19:02:00,83.3,23.4,25.07,ESE,115,8.0,12.1,11,0.00,,,-99.99,FreeWX 2.04,2013-08-06 01:02:00,
2013-08-05 19:07:00,83.1,23.2,25.07,ESE,106,8.0,13.0,11,0.00,,,-99.99,FreeWX 2.04,2013-08-06 01:07:00,
2013-08-05 19:12:00,83.1,23.2,25.07,ESE,113,8.0,12.1,11,0.00,,,-99.99,FreeWX 2.04,2013-08-06 01:12:00,
2013-08-05 19:17:00,83.1,23.2,25.07,ESE,110,9.0,16.3,11,0.00,,,-99.99,FreeWX 2.04,2013-08-06 01:17:00,
2013-08-05 19:27:00,83.1,23.2,25.07,ESE,109,8.0,13.9,11,0.00,,,-99.99,FreeWX 2.04,2013-08-06 01:27:00,
2013-08-05 19:37:00,83.3,23.4,25.07,SE,133,7.0,10.5,11,0.00,,,-99.99,FreeWX 2.04,2013-08-06 01:37:00,
2013-08-05 19:42:00,83.5,-99.9,25.07,SE,141,7.0,10.5,-999,0.00,,,-99.99,FreeWX 2.04,2013-08-06 01:42:00,
2013-08-05 19:53:00,83.5,-99.9,25.04,SE,142,4.0,5.4,-999,0.00,,,-99.99,FreeWX 2.04,2013-08-06 01:53:00,
2013-08-05 19:58:00,82.8,22.8,25.04,SE,140,4.0,5.8,11,0.00,,,-99.99,FreeWX 2.04,2013-08-06 01:58:00,
2013-08-05 20:03:00,82.2,22.5,25.07,South,186,4.0,6.7,11,0.00,,,-99.99,FreeWX 2.04,2013-08-06 02:03:00,
2013-08-05 20:08:00,81.3,27.5,25.07,SW,232,5.0,7.8,14,0.00,,,-99.99,FreeWX 2.04,2013-08-06 02:08:00,
2013-08-05 20:13:00,80.8,27.1,25.07,WSW,243,6.0,8.3,14,0.00,,,-99.99,FreeWX 2.04,2013-08-06 02:13:00,
2013-08-05 20:23:00,80.2,31.5,25.07,WSW,239,6.0,8.7,17,0.00,,,-99.99,FreeWX 2.04,2013-08-06 02:23:00,
2013-08-05 20:28:00,79.9,34.0,25.07,SW,236,5.0,6.3,19,0.00,,,-99.99,FreeWX 2.04,2013-08-06 02:28:00,
2013-08-05 20:33:00,78.6,35.4,25.07,SW,233,4.0,6.3,21,0.00,,,-99.99,FreeWX 2.04,2013-08-06 02:33:00,
2013-08-05 20:43:00,78.1,34.9,25.07,SW,233,3.0,3.6,21,0.00,,,-99.99,FreeWX 2.04,2013-08-06 02:43:00,
2013-08-05 20:49:00,78.1,34.9,25.07,SW,233,2.0,3.6,21,0.00,,,-99.99,FreeWX 2.04,2013-08-06 02:49:00,
2013-08-05 20:54:00,77.7,34.7,25.07,SW,233,2.0,4.0,21,0.00,,,-99.99,FreeWX 2.04,2013-08-06 02:54:00,
2013-08-05 20:59:00,77.4,34.3,25.07,SW,233,2.0,3.1,21,0.00,,,-99.99,FreeWX 2.04,2013-08-06 02:59:00,
2013-08-05 21:04:00,77.4,34.3,25.07,North,-999,0.0,0.0,21,0.00,,,-99.99,FreeWX 2.04,2013-08-06 03:04:00,
2013-08-05 21:09:00,77.5,34.5,25.07,North,-999,0.0,3.1,21,0.00,,,-99.99,FreeWX 2.04,2013-08-06 03:09:00,
2013-08-05 21:19:00,77.9,34.9,25.10,WSW,250,4.0,5.4,21,0.00,,,-99.99,FreeWX 2.04,2013-08-06 03:19:00,
2013-08-05 21:24:00,78.8,34.3,25.10,West,281,5.0,11.0,20,0.00,,,-99.99,FreeWX 2.04,2013-08-06 03:24:00,
2013-08-05 21:29:00,78.6,34.2,25.10,NNW,335,6.0,9.2,20,0.00,,,-99.99,FreeWX 2.04,2013-08-06 03:29:00,
2013-08-05 21:34:00,77.7,33.4,25.10,North,4,6.0,8.3,20,0.00,,,-99.99,FreeWX 2.04,2013-08-06 03:34:00,
2013-08-05 21:39:00,77.4,33.1,25.10,NNE,21,5.0,7.4,20,0.00,,,-99.99,FreeWX 2.04,2013-08-06 03:39:00,
2013-08-05 21:44:00,76.8,34.0,25.10,NNE,27,4.0,6.7,21,0.00,,,-99.99,FreeWX 2.04,2013-08-06 03:44:00,
2013-08-05 21:49:00,76.6,33.8,25.10,NNE,30,4.0,7.4,21,0.00,,,-99.99,FreeWX 2.04,2013-08-06 03:49:00,
2013-08-05 21:54:00,76.8,32.7,25.10,NE,36,4.0,7.4,20,0.00,,,-99.99,FreeWX 2.04,2013-08-06 03:54:00,
2013-08-05 22:04:00,76.8,32.7,25.10,NNE,32,5.0,8.3,20,0.00,,,-99.99,FreeWX 2.04,2013-08-06 04:04:00,
2013-08-05 22:09:00,77.0,32.9,25.10,NE,34,5.0,9.6,20,0.00,,,-99.99,FreeWX 2.04,2013-08-06 04:09:00,
2013-08-05 22:14:00,76.3,32.2,25.10,NNE,28,6.0,9.2,20,0.00,,,-99.99,FreeWX 2.04,2013-08-06 04:14:00,
2013-08-05 22:19:00,76.6,32.5,25.10,NNE,19,6.0,8.3,20,0.00,,,-99.99,FreeWX 2.04,2013-08-06 04:19:00,
2013-08-05 22:24:00,76.6,32.5,25.10,NNE,15,6.0,9.6,20,0.00,,,-99.99,FreeWX 2.04,2013-08-06 04:24:00,
2013-08-05 22:29:00,76.5,32.4,25.10,NNE,18,4.0,6.9,20,0.00,,,-99.99,FreeWX 2.04,2013-08-06 04:29:00,
2013-08-05 22:34:00,75.6,32.9,25.10,NNE,19,4.0,4.9,21,0.00,,,-99.99,FreeWX 2.04,2013-08-06 04:34:00,
2013-08-05 22:39:00,75.9,33.1,25.10,NNE,16,4.0,6.3,21,0.00,,,-99.99,FreeWX 2.04,2013-08-06 04:39:00,
2013-08-05 22:44:00,76.1,33.3,25.10,NNE,13,5.0,6.9,21,0.00,,,-99.99,FreeWX 2.04,2013-08-06 04:44:00,
2013-08-05 22:49:00,75.6,32.9,25.10,NNE,13,5.0,6.7,21,0.00,,,-99.99,FreeWX 2.04,2013-08-06 04:49:00,
2013-08-05 22:54:00,74.8,32.4,25.10,NNE,22,4.0,6.7,21,0.00,,,-99.99,FreeWX 2.04,2013-08-06 04:54:00,
2013-08-05 22:59:00,74.3,32.9,25.10,NNE,32,4.0,5.4,22,0.00,,,-99.99,FreeWX 2.04,2013-08-06 04:59:00,
2013-08-05 23:04:00,74.5,33.1,25.10,NE,36,3.0,5.4,22,0.00,,,-99.99,FreeWX 2.04,2013-08-06 05:04:00,
2013-08-05 23:09:00,74.5,33.1,25.10,NE,39,4.0,5.8,22,0.00,,,-99.99,FreeWX 2.04,2013-08-06 05:09:00,
2013-08-05 23:14:00,74.8,33.4,25.10,NE,41,4.0,5.8,22,0.00,,,-99.99,FreeWX 2.04,2013-08-06 05:14:00,
2013-08-05 23:19:00,74.7,33.3,25.10,NE,39,3.0,5.8,22,0.00,,,-99.99,FreeWX 2.04,2013-08-06 05:19:00,
2013-08-05 23:24:00,74.1,32.9,25.10,NE,39,3.0,5.8,22,0.00,,,-99.99,FreeWX 2.04,2013-08-06 05:24:00,
2013-08-05 23:29:00,74.1,32.9,25.10,NE,38,3.0,4.9,22,0.00,,,-99.99,FreeWX 2.04,2013-08-06 05:29:00,
2013-08-05 23:34:00,74.5,33.1,25.10,NE,37,3.0,5.4,22,0.00,,,-99.99,FreeWX 2.04,2013-08-06 05:34:00,
2013-08-05 23:39:00,74.8,32.4,25.10,NNE,24,4.0,5.4,21,0.00,,,-99.99,FreeWX 2.04,2013-08-06 05:39:00,
2013-08-05 23:44:00,74.5,33.1,25.10,North,10,3.0,4.0,22,0.00,,,-99.99,FreeWX 2.04,2013-08-06 05:44:00,
2013-08-05 23:49:00,73.9,32.7,25.10,North,8,3.0,4.9,22,0.00,,,-99.99,FreeWX 2.04,2013-08-06 05:49:00,
2013-08-05 23:55:00,73.6,33.4,25.10,North,7,4.0,4.9,23,0.00,,,-99.99,FreeWX 2.04,2013-08-06 05:55:00,